Main page
METAR-TAF:

METAR-TAF

Airports :

RAF Valley

Valley, Wales

latitude: 53-15N, longitude: 004-32W, elevation: 1 m

Current weather observation

The report was made 1 hour and 2 minutes ago, at 06:50 UTC
Wind 20 kt from the Southwest
Temperature 15°C
Humidity 77%
Pressure 999 hPa
Visibility 10 km or more

METAR: EGOV 180650Z AUTO 23020KT 9999 FEW020/// BKN070/// 15/11 Q0999

Time: 08:52 (07:52 UTC)


TAF: missing

Weather observations and forecasts of more than 4000 airports (METAR and TAF reports).

The available stations are represented by yellow and red dots on the map.

Hover mouse over dot to see the name of the station.

Then click to see weather observations and forecasts.

To change the map : click on the green buttons with a black cross to zoom in, on the green button with a dash to zoom out, or on the green arrows for adjacent maps.


METAR-TAF: